Time;durP1;ratioP1;P1;durP2;ratioP2;P2;SDS_P1;SDS_P2;PMS_P1;PMS_P2;Temp;Humidity;BMP_temperature;BMP_pressure;BME280_temperature;BME280_humidity;BME280_pressure;Samples;Min_cycle;Max_cycle;Signal;HPM_P1;HPM_P2
2024/04/06 00:02:07;;;;;;;5.40;1.20;;;;;;;17.68;84.04;100976.75;5023545;27;99047;-70
2024/04/06 00:04:34;;;;;;;;;;;;;;;17.87;83.18;100988.03;5031209;27;98747;-63
2024/04/06 00:06:59;;;;;;;2.42;1.10;;;;;;;18.04;82.23;100977.16;5032130;28;97891;-63
2024/04/06 00:09:26;;;;;;;;;;;;;;;17.97;82.44;100970.47;5032781;27;96999;-64
2024/04/06 00:11:51;;;;;;;6.97;1.35;;;;;;;17.98;82.08;100974.00;5036554;27;98418;-62
2024/04/06 00:14:19;;;;;;;;;;;;;;;18.10;81.50;100978.56;5032624;27;97796;-64
2024/04/06 00:16:44;;;;;;;;;;;;;;;18.38;80.37;100983.88;5034800;27;96644;-62
2024/04/06 00:19:12;;;;;;;3.75;1.15;;;;;;;18.56;79.20;100980.06;5038002;27;96920;-65
2024/04/06 00:21:38;;;;;;;2.65;1.27;;;;;;;18.57;79.29;100980.94;5038475;27;98981;-62
2024/04/06 00:24:04;;;;;;;;;;;;;;;18.38;79.77;100980.38;5037365;27;98698;-64
2024/04/06 00:26:29;;;;;;;2.25;1.25;;;;;;;18.02;81.17;100978.19;5033292;27;96719;-63
2024/04/06 00:28:56;;;;;;;;;;;;;;;17.99;81.97;100979.22;5036036;27;98377;-62
2024/04/06 00:31:22;;;;;;;5.22;1.48;;;;;;;18.16;80.48;100975.50;5043879;27;102165;-63
2024/04/06 00:33:49;;;;;;;4.07;1.60;;;;;;;18.15;80.65;100976.47;5031500;27;98764;-62
2024/04/06 00:36:14;;;;;;;5.05;1.42;;;;;;;18.17;80.55;100979.91;5032922;27;99952;-62
2024/04/06 00:38:40;;;;;;;;;;;;;;;18.13;81.03;100975.69;5033967;27;97860;-62
2024/04/06 00:41:06;;;;;;;4.68;1.65;;;;;;;18.20;80.40;100982.38;5028504;27;99314;-62
2024/04/06 00:43:32;;;;;;;;;;;;;;;18.22;80.29;100984.00;5032943;27;97931;-64
2024/04/06 00:45:58;;;;;;;6.65;1.88;;;;;;;18.25;79.88;100985.59;5031922;27;96789;-63
2024/04/06 00:48:26;;;;;;;;;;;;;;;18.13;80.62;100991.75;5035693;27;97213;-64
2024/04/06 00:50:53;;;;;;;3.30;1.60;;;;;;;18.14;80.47;100988.97;5032843;27;99436;-63
2024/04/06 00:53:19;;;;;;;4.65;1.60;;;;;;;18.21;79.96;100992.13;5030720;27;98773;-64
2024/04/06 00:55:45;;;;;;;;;;;;;;;18.27;79.92;100994.41;5029781;27;96830;-63
2024/04/06 00:58:11;;;;;;;3.33;1.85;;;;;;;18.23;79.59;100995.56;5033076;27;97268;-63
2024/04/06 01:00:38;;;;;;;;;;;;;;;18.15;80.19;100989.84;5035595;27;98113;-64
2024/04/06 01:03:04;;;;;;;3.93;1.53;;;;;;;18.24;79.57;100986.59;5031835;27;98868;-63
2024/04/06 01:05:31;;;;;;;3.08;1.70;;;;;;;18.27;79.16;100986.38;5034893;27;96671;-63
2024/04/06 01:07:57;;;;;;;3.35;1.73;;;;;;;18.42;78.76;100985.41;5032617;27;97024;-62
2024/04/06 01:10:24;;;;;;;;;;;;;;;18.22;79.00;100991.16;5030275;27;99154;-64
2024/04/06 01:12:49;;;;;;;4.20;1.60;;;;;;;18.35;78.37;100991.25;5031752;27;99240;-63
2024/04/06 01:15:15;;;;;;;;;;;;;;;18.21;79.70;101001.00;5035996;27;96755;-62
2024/04/06 01:17:41;;;;;;;4.07;1.27;;;;;;;18.43;78.29;101013.88;5032627;27;96913;-63
2024/04/06 01:20:08;;;;;;;;;;;;;;;18.19;79.46;101005.59;5034491;27;98737;-62
2024/04/06 01:22:35;;;;;;;5.72;1.35;;;;;;;18.29;79.32;101016.56;5040414;27;99378;-62
2024/04/06 01:25:04;;;;;;;6.30;1.92;;;;;;;18.25;79.67;101021.25;5031337;27;96748;-63
2024/04/06 01:27:29;;;;;;;3.65;1.70;;;;;;;18.32;79.23;101027.06;5027782;27;96976;-63
2024/04/06 01:29:55;;;;;;;;;;;;;;;18.18;79.57;101027.94;5031508;27;98897;-63
2024/04/06 01:32:21;;;;;;;3.45;1.63;;;;;;;18.39;78.93;101031.06;5032246;27;98790;-62
2024/04/06 01:34:47;;;;;;;;;;;;;;;18.41;78.81;101031.84;5035185;27;96799;-62
2024/04/06 01:37:13;;;;;;;2.97;1.48;;;;;;;18.40;78.79;101040.81;5033783;27;96901;-63
2024/04/06 01:39:40;;;;;;;7.38;2.30;;;;;;;18.05;79.86;101042.19;5030891;27;98788;-63
2024/04/06 01:42:06;;;;;;;5.25;1.60;;;;;;;18.15;80.29;101043.31;5028694;27;98982;-62
2024/04/06 01:44:33;;;;;;;3.83;1.45;;;;;;;18.08;80.46;101048.19;5033791;27;97940;-64
2024/04/06 01:46:58;;;;;;;2.33;1.80;;;;;;;18.04;80.16;101057.38;5039143;27;96852;-63
2024/04/06 01:49:24;;;;;;;;;;;;;;;18.05;80.52;101053.72;5030565;27;98733;-63
2024/04/06 01:51:50;;;;;;;4.30;1.65;;;;;;;17.81;81.10;101049.88;5030871;27;99296;-62
2024/04/06 01:54:16;;;;;;;;;;;;;;;17.87;81.12;101050.38;5031583;27;99777;-63
2024/04/06 01:56:41;;;;;;;7.13;1.77;;;;;;;17.96;80.92;101048.09;5031422;28;96754;-63
2024/04/06 01:59:09;;;;;;;;;;;;;;;17.87;81.15;101053.03;5029158;27;99249;-64
2024/04/06 02:01:35;;;;;;;5.68;1.55;;;;;;;17.75;81.62;101055.59;5031403;27;98811;-63
2024/04/06 02:04:01;;;;;;;;;;;;;;;17.59;82.71;101058.28;5027850;28;96955;-63
2024/04/06 02:06:26;;;;;;;2.97;1.48;;;;;;;17.73;81.87;101057.50;5031077;27;96860;-62
2024/04/06 02:08:53;;;;;;;;;;;;;;;17.61;82.52;101053.75;5030236;27;98844;-63
2024/04/06 02:11:18;;;;;;;3.22;1.67;;;;;;;17.39;83.40;101055.97;5030704;27;99354;-63
2024/04/06 02:13:44;;;;;;;;;;;;;;;17.16;84.60;101062.63;5031135;27;96799;-63
2024/04/06 02:16:11;;;;;;;3.15;1.55;;;;;;;17.31;84.31;101071.56;5033986;27;96916;-63
2024/04/06 02:18:38;;;;;;;5.93;1.73;;;;;;;17.17;84.98;101058.16;5033063;27;97717;-63
2024/04/06 02:21:04;;;;;;;7.30;1.38;;;;;;;17.20;84.65;101061.50;5036182;27;98801;-63
2024/04/06 02:23:30;;;;;;;3.95;1.42;;;;;;;17.02;85.70;101054.53;5038407;27;96769;-63
2024/04/06 02:25:55;;;;;;;1.63;1.25;;;;;;;17.27;84.67;101053.97;5039100;27;96711;-63
2024/04/06 02:28:22;;;;;;;;;;;;;;;17.20;84.26;101053.47;5039672;27;98155;-63
2024/04/06 02:30:47;;;;;;;5.60;1.80;;;;;;;17.30;84.16;101053.81;5034621;27;97511;-63
2024/04/06 02:33:15;;;;;;;;;;;;;;;17.17;84.50;101052.81;5037561;27;96771;-63
2024/04/06 02:35:40;;;;;;;;;;;;;;;17.23;84.63;101050.63;5039331;27;98626;-64
2024/04/06 02:38:07;;;;;;;3.45;1.20;;;;;;;17.49;82.87;101059.78;5038589;27;98236;-63
2024/04/06 02:40:32;;;;;;;3.33;1.63;;;;;;;17.58;81.88;101059.25;5034601;27;99417;-63
2024/04/06 02:42:58;;;;;;;;;;;;;;;17.50;82.29;101059.72;5034393;27;96767;-64
2024/04/06 02:45:24;;;;;;;3.58;1.20;;;;;;;17.45;82.45;101058.25;5040362;27;96797;-64
2024/04/06 02:47:51;;;;;;;;;;;;;;;17.44;82.81;101057.41;5042815;27;98830;-64
2024/04/06 02:50:18;;;;;;;7.40;1.50;;;;;;;17.28;83.32;101063.72;5036676;27;99223;-63
2024/04/06 02:52:45;;;;;;;5.63;1.65;;;;;;;17.40;82.82;101061.19;5027035;27;97058;-65
2024/04/06 02:55:11;;;;;;;11.60;1.73;;;;;;;17.30;83.36;101059.16;5040234;27;98238;-63
2024/04/06 02:57:37;;;;;;;;;;;;;;;17.55;81.87;101054.09;5035335;27;99046;-62
2024/04/06 03:00:03;;;;;;;3.97;1.50;;;;;;;17.62;81.54;101059.97;5033544;27;99274;-63
2024/04/06 03:02:30;;;;;;;2.55;1.23;;;;;;;17.74;80.87;101068.09;5035666;27;96787;-63
2024/04/06 03:04:55;;;;;;;2.67;1.35;;;;;;;17.77;80.22;101062.59;5033748;27;97002;-63
2024/04/06 03:07:23;;;;;;;;;;;;;;;17.66;81.17;101065.03;5033766;27;98791;-63
2024/04/06 03:09:48;;;;;;;4.10;1.30;;;;;;;17.79;80.57;101063.31;5034148;27;98738;-63
2024/04/06 03:12:15;;;;;;;;;;;;;;;17.88;80.11;101068.13;5036392;27;98241;-62
2024/04/06 03:14:40;;;;;;;2.25;1.30;;;;;;;17.99;79.41;101077.28;5038210;27;97069;-62
2024/04/06 03:17:06;;;;;;;;;;;;;;;17.79;79.79;101081.19;5033906;27;97574;-62
2024/04/06 03:19:32;;;;;;;4.72;1.50;;;;;;;17.47;81.81;101080.38;5035236;27;99241;-63
2024/04/06 03:21:58;;;;;;;;;;;;;;;17.32;82.78;101073.28;5035516;27;96968;-62
2024/04/06 03:24:24;;;;;;;3.80;1.58;;;;;;;17.33;82.05;101070.50;5035439;27;98629;-63
2024/04/06 03:26:52;;;;;;;5.55;1.40;;;;;;;17.08;84.14;101075.53;5033879;27;98779;-63
2024/04/06 03:29:18;;;;;;;4.03;1.35;;;;;;;17.23;83.30;101079.16;5032785;27;99491;-62
2024/04/06 03:31:45;;;;;;;3.65;1.30;;;;;;;17.27;83.18;101068.19;5033369;27;96873;-62
2024/04/06 03:34:10;;;;;;;7.32;1.55;;;;;;;17.22;83.41;101072.94;5033735;27;97290;-62
2024/04/06 03:36:37;;;;;;;;;;;;;;;17.31;82.92;101083.13;5031997;27;98860;-62
2024/04/06 03:39:03;;;;;;;5.23;1.97;;;;;;;17.48;82.03;101074.09;5033029;27;100449;-62
2024/04/06 03:41:31;;;;;;;4.93;1.77;;;;;;;17.54;81.43;101074.59;5026119;27;96916;-62
2024/04/06 03:43:57;;;;;;;7.82;1.98;;;;;;;17.47;81.60;101078.56;5035862;27;97028;-63
2024/04/06 03:46:28;;;;;;;5.45;1.70;;;;;;;17.57;81.30;101083.41;5031201;27;99264;-63
2024/04/06 03:48:55;;;;;;;9.93;2.05;;;;;;;17.32;82.56;101083.97;5032613;27;97846;-64
2024/04/06 03:51:20;;;;;;;4.85;1.75;;;;;;;17.20;83.35;101074.84;5030424;28;96743;-63
2024/04/06 03:53:46;;;;;;;;;;;;;;;17.16;83.21;101084.00;5037721;27;98975;-62
2024/04/06 03:56:12;;;;;;;2.45;1.50;;;;;;;17.17;82.95;101077.69;5035027;27;98942;-69
2024/04/06 03:58:39;;;;;;;;;;;;;;;17.26;82.62;101079.84;5030983;27;97602;-70
2024/04/06 04:01:05;;;;;;;2.70;1.35;;;;;;;17.44;81.78;101080.59;5035774;27;96702;-70
2024/04/06 04:03:31;;;;;;;;;;;;;;;17.41;81.94;101078.94;5032298;27;96907;-69
2024/04/06 04:05:56;;;;;;;4.10;1.30;;;;;;;17.45;81.20;101079.63;5041942;27;98130;-70
2024/04/06 04:08:23;;;;;;;;;;;;;;;17.47;81.36;101067.91;5034486;27;100781;-70
2024/04/06 04:10:48;;;;;;;3.72;1.70;;;;;;;17.46;81.05;101078.66;5032192;27;96868;-71
2024/04/06 04:13:16;;;;;;;;;;;;;;;17.55;80.50;101070.13;5029443;27;98193;-70
2024/04/06 04:15:43;;;;;;;2.22;1.38;;;;;;;17.59;80.42;101082.31;5037738;27;101585;-70
2024/04/06 04:18:12;;;;;;;3.85;1.48;;;;;;;17.70;79.87;101077.25;5032345;27;97894;-71
2024/04/06 04:20:38;;;;;;;5.20;1.70;;;;;;;17.76;79.77;101094.75;5032952;27;98463;-70
2024/04/06 04:23:04;;;;;;;;;;;;;;;17.73;79.65;101082.41;5034671;27;97714;-71
2024/04/06 04:25:30;;;;;;;5.80;1.25;;;;;;;17.72;79.52;101088.69;5032363;27;100400;-71
2024/04/06 04:27:57;;;;;;;3.92;1.70;;;;;;;17.77;79.40;101088.44;5039925;27;98601;-70
2024/04/06 04:30:23;;;;;;;2.88;1.52;;;;;;;17.56;80.01;101098.56;5031767;28;98069;-71
2024/04/06 04:32:51;;;;;;;;;;;;;;;17.64;80.02;101092.81;5036648;27;97283;-70
2024/04/06 04:35:16;;;;;;;6.07;1.30;;;;;;;17.51;80.06;101096.16;5039244;27;98847;-70
2024/04/06 04:37:43;;;;;;;;;;;;;;;17.44;80.60;101091.28;5032829;27;99117;-70
2024/04/06 04:40:09;;;;;;;2.85;1.85;;;;;;;17.46;80.86;101092.88;5036380;27;98419;-70
2024/04/06 04:42:35;;;;;;;4.55;1.55;;;;;;;17.14;81.68;101092.06;5032759;27;96682;-73
2024/04/06 04:45:07;;;;;;;2.95;1.40;;;;;;;17.59;80.42;101087.69;5036604;27;99875;-72
2024/04/06 04:47:34;;;;;;;2.15;1.45;;;;;;;17.60;80.21;101088.53;5034835;27;98879;-71
2024/04/06 04:50:03;;;;;;;3.95;1.42;;;;;;;17.66;79.68;101089.06;5030594;27;96882;-70
2024/04/06 04:52:29;;;;;;;4.68;1.65;;;;;;;17.70;79.78;101085.28;5029113;27;97330;-70
2024/04/06 04:54:55;;;;;;;5.45;1.80;;;;;;;17.69;79.80;101086.22;5034170;27;99284;-70
2024/04/06 04:57:21;;;;;;;;;;;;;;;17.66;79.71;101089.06;5039642;27;97846;-72
2024/04/06 04:59:47;;;;;;;3.17;1.60;;;;;;;17.80;79.60;101086.44;5036055;27;96755;-70
2024/04/06 05:02:13;;;;;;;5.03;1.73;;;;;;;17.78;79.85;101088.38;5029640;27;96650;-70
2024/04/06 05:04:39;;;;;;;6.35;1.90;;;;;;;17.87;79.48;101092.28;5024647;28;98917;-71
2024/04/06 05:07:06;;;;;;;;;;;;;;;17.89;79.15;101095.72;5032385;27;97482;-70
2024/04/06 05:09:32;;;;;;;;;;;;;;;17.83;79.57;101104.13;5023314;27;96879;-70
2024/04/06 05:11:58;;;;;;;5.75;1.77;;;;;;;17.64;80.77;101101.69;5035319;27;96775;-71
2024/04/06 05:14:23;;;;;;;3.80;1.50;;;;;;;17.80;80.11;101101.63;5031714;27;98886;-70
2024/04/06 05:16:50;;;;;;;;;;;;;;;17.78;80.54;101107.06;5039710;27;99277;-70
2024/04/06 05:19:16;;;;;;;4.70;1.60;;;;;;;17.88;79.12;101116.25;5030808;28;96770;-70
2024/04/06 05:21:42;;;;;;;;;;;;;;;18.01;78.49;101115.50;5034995;27;96981;-70
2024/04/06 05:24:09;;;;;;;2.07;1.63;;;;;;;17.96;78.49;101114.94;5035865;27;98941;-72
2024/04/06 05:26:37;;;;;;;2.95;1.55;;;;;;;17.68;79.61;101123.72;5028523;27;98140;-70
2024/04/06 05:29:02;;;;;;;3.47;1.92;;;;;;;17.68;79.93;101124.59;5033712;27;96797;-70
2024/04/06 05:31:29;;;;;;;;;;;;;;;18.04;78.37;101126.03;5026330;27;96780;-70
2024/04/06 05:33:54;;;;;;;4.63;1.40;;;;;;;17.98;77.38;101127.28;5031945;28;98966;-70
2024/04/06 05:36:21;;;;;;;;;;;;;;;18.26;76.78;101135.31;5032167;27;99500;-70
2024/04/06 05:38:46;;;;;;;4.63;1.80;;;;;;;18.19;76.92;101142.00;5037635;27;97255;-71
2024/04/06 05:41:14;;;;;;;;;;;;;;;18.38;76.02;101141.72;5035972;27;96824;-70
2024/04/06 05:43:39;;;;;;;;;;;;;;;18.41;75.77;101140.69;5026491;27;99825;-70
2024/04/06 05:46:05;;;;;;;4.95;2.22;;;;;;;18.48;75.17;101150.06;5031611;27;98868;-70
2024/04/06 05:48:31;;;;;;;4.20;1.38;;;;;;;18.54;75.12;101158.56;5031660;27;96723;-70
2024/04/06 05:50:58;;;;;;;;;;;;;;;18.51;74.44;101150.72;5036569;27;96891;-70
2024/04/06 05:53:24;;;;;;;3.17;1.42;;;;;;;18.45;75.10;101159.13;5030833;27;98953;-71
2024/04/06 05:55:50;;;;;;;;;;;;;;;18.43;74.79;101157.50;5030341;28;98898;-71
2024/04/06 05:58:17;;;;;;;7.37;1.40;;;;;;;18.40;75.25;101150.53;5024327;27;98248;-70
2024/04/06 06:00:44;;;;;;;3.72;1.17;;;;;;;18.66;74.24;101157.81;5031195;27;96826;-71
2024/04/06 06:03:09;;;;;;;4.25;1.60;;;;;;;18.84;73.31;101154.97;5031276;27;99320;-70
2024/04/06 06:05:35;;;;;;;;;;;;;;;18.88;72.65;101156.47;5038085;27;98702;-70
2024/04/06 06:08:01;;;;;;;2.50;1.52;;;;;;;18.74;72.82;101157.34;5034801;27;96761;-70
2024/04/06 06:10:27;;;;;;;;;;;;;;;18.73;73.40;101157.44;5034921;27;96920;-69
2024/04/06 06:12:53;;;;;;;4.07;1.58;;;;;;;18.91;72.68;101164.31;5038815;27;98834;-68
2024/04/06 06:15:20;;;;;;;;;;;;;;;19.01;72.39;101168.13;5033821;27;98945;-70
2024/04/06 06:17:46;;;;;;;;;;;;;;;19.06;71.88;101166.88;5032978;27;97720;-69
2024/04/06 06:20:12;;;;;;;3.13;1.58;;;;;;;19.11;71.77;101170.13;5033851;27;96915;-69
2024/04/06 06:22:37;;;;;;;5.95;1.98;;;;;;;19.19;71.41;101166.94;5030581;27;101005;-70
2024/04/06 06:25:04;;;;;;;;;;;;;;;19.00;71.98;101169.94;5034862;27;98794;-69
2024/04/06 06:27:30;;;;;;;3.53;1.67;;;;;;;19.31;71.72;101170.63;5034699;27;96749;-70
2024/04/06 06:29:56;;;;;;;;;;;;;;;19.25;71.11;101171.91;5036491;27;96802;-71
2024/04/06 06:32:23;;;;;;;6.90;1.65;;;;;;;19.26;71.66;101173.63;5033198;27;98816;-67
2024/04/06 06:34:49;;;;;;;4.43;1.65;;;;;;;19.43;70.50;101176.06;5029391;28;98870;-70
2024/04/06 06:37:16;;;;;;;3.10;1.42;;;;;;;19.32;70.95;101175.91;5035627;27;96693;-69
2024/04/06 06:39:43;;;;;;;3.90;1.50;;;;;;;19.28;70.63;101177.06;5039471;27;96787;-69
2024/04/06 06:42:09;;;;;;;4.60;1.67;;;;;;;19.74;70.00;101176.75;5039854;27;99057;-70
2024/04/06 06:44:35;;;;;;;10.30;1.45;;;;;;;19.64;70.34;101176.50;5039327;27;98394;-72
2024/04/06 06:47:01;;;;;;;3.05;1.30;;;;;;;19.04;71.96;101182.19;5036413;27;97332;-71
2024/04/06 06:49:29;;;;;;;4.90;1.67;;;;;;;18.94;72.60;101180.19;5035468;27;97033;-69
2024/04/06 06:51:55;;;;;;;6.07;2.05;;;;;;;19.17;72.15;101179.56;5035120;27;99344;-71
2024/04/06 06:54:21;;;;;;;;;;;;;;;19.18;71.52;101180.44;5037477;27;98178;-71
2024/04/06 06:56:46;;;;;;;5.43;1.67;;;;;;;19.52;71.03;101187.19;5039841;27;96779;-71
2024/04/06 06:59:13;;;;;;;;;;;;;;;19.08;71.82;101182.84;5037557;27;96806;-70
2024/04/06 07:01:38;;;;;;;4.68;1.70;;;;;;;19.37;71.95;101181.81;5038584;27;98754;-69
2024/04/06 07:04:05;;;;;;;;;;;;;;;19.49;70.53;101186.41;5032084;27;99018;-70
2024/04/06 07:06:32;;;;;;;4.13;1.10;;;;;;;18.90;73.21;101186.72;5037596;27;98309;-72
2024/04/06 07:08:58;;;;;;;5.55;1.50;;;;;;;19.41;72.28;101185.19;5029651;27;97118;-72
2024/04/06 07:11:24;;;;;;;8.48;1.60;;;;;;;19.59;70.95;101184.00;5041839;27;97574;-71
2024/04/06 07:13:50;;;;;;;;;;;;;;;19.93;70.05;101179.94;5039390;27;101713;-71
2024/04/06 07:16:16;;;;;;;18.67;13.13;;;;;;;20.14;69.40;101177.63;5040431;27;96893;-71
2024/04/06 07:18:42;;;;;;;;;;;;;;;20.51;67.11;101176.81;5034692;27;96812;-71
2024/04/06 07:21:11;;;;;;;4.55;1.75;;;;;;;20.47;66.92;101177.13;5037474;27;99317;-72
2024/04/06 07:23:38;;;;;;;2.90;1.48;;;;;;;20.96;65.87;101180.72;5037083;27;101895;-72
2024/04/06 07:26:05;;;;;;;4.88;1.65;;;;;;;20.82;65.59;101185.38;5036924;27;98154;-72
2024/04/06 07:28:32;;;;;;;8.18;2.17;;;;;;;21.15;64.12;101184.78;5033329;27;97170;-72
2024/04/06 07:30:57;;;;;;;5.32;1.73;;;;;;;21.57;63.73;101184.34;5034356;27;98881;-71
2024/04/06 07:33:24;;;;;;;;;;;;;;;21.77;61.95;101191.78;5035525;27;99866;-71
2024/04/06 07:35:49;;;;;;;3.70;1.60;;;;;;;21.65;62.75;101181.97;5027930;27;96889;-70
2024/04/06 07:38:16;;;;;;;;;;;;;;;22.01;60.81;101182.84;5029448;27;96972;-70
2024/04/06 07:40:43;;;;;;;3.70;1.45;;;;;;;22.32;59.92;101190.28;5031786;27;99154;-70
2024/04/06 07:43:09;;;;;;;3.40;1.48;;;;;;;22.52;59.46;101203.06;5033694;27;101057;-69
2024/04/06 07:45:35;;;;;;;6.22;2.75;;;;;;;22.17;58.66;101199.56;5036447;27;97847;-68
2024/04/06 07:48:02;;;;;;;13.10;7.50;;;;;;;21.44;61.27;101207.75;5029874;27;96849;-68
2024/04/06 07:50:27;;;;;;;5.65;2.38;;;;;;;21.23;62.83;101207.47;5040360;27;97496;-68
2024/04/06 07:52:53;;;;;;;10.52;3.45;;;;;;;21.22;63.13;101197.69;5030951;27;98263;-69
2024/04/06 07:55:20;;;;;;;8.10;3.50;;;;;;;21.80;61.88;101190.69;5031824;27;96840;-69
2024/04/06 07:57:48;;;;;;;7.80;2.65;;;;;;;21.78;61.91;101187.28;5037387;27;96938;-69
2024/04/06 08:00:14;;;;;;;3.17;1.33;;;;;;;22.00;61.56;101182.00;5033232;27;96763;-69
2024/04/06 08:02:41;;;;;;;2.58;1.20;;;;;;;22.34;59.35;101179.41;5026464;27;99920;-68
2024/04/06 08:05:08;;;;;;;3.95;1.80;;;;;;;22.72;58.75;101181.78;5031974;27;97621;-69
2024/04/06 08:07:35;;;;;;;6.13;1.70;;;;;;;23.05;57.02;101187.19;5034073;27;96811;-68
2024/04/06 08:10:12;;;;;;;5.03;1.10;;;;;;;23.24;55.43;101195.50;5032819;27;101281;-69
2024/04/06 08:12:38;;;;;;;5.55;1.88;;;;;;;22.58;57.10;101205.25;5029648;27;101762;-71
2024/04/06 08:15:08;;;;;;;9.93;1.35;;;;;;;22.55;57.05;101200.13;5042358;27;97079;-69
2024/04/06 08:17:35;;;;;;;6.22;1.38;;;;;;;22.76;57.59;101218.31;5028126;27;96912;-69
2024/04/06 08:20:01;;;;;;;7.00;1.20;;;;;;;22.82;57.21;101217.81;5037037;27;98961;-68
2024/04/06 08:22:27;;;;;;;9.43;4.72;;;;;;;23.42;56.28;101228.22;5023146;27;98868;-68
2024/04/06 08:24:52;;;;;;;7.40;2.03;;;;;;;23.35;55.21;101227.00;5026512;27;97156;-69
2024/04/06 08:27:19;;;;;;;4.43;1.60;;;;;;;23.14;56.08;101228.72;5025707;27;97112;-69
2024/04/06 08:29:44;;;;;;;2.58;1.30;;;;;;;22.61;57.86;101231.97;5037006;27;97814;-68
2024/04/06 08:32:12;;;;;;;3.95;1.88;;;;;;;22.56;57.79;101218.00;5038930;27;102530;-69
2024/04/06 08:34:38;;;;;;;5.57;1.42;;;;;;;22.87;57.30;101227.25;5032704;27;97027;-70
2024/04/06 08:37:04;;;;;;;4.72;1.27;;;;;;;22.98;56.57;101221.00;5030241;27;97911;-70
2024/04/06 08:39:30;;;;;;;5.03;1.40;;;;;;;23.10;56.89;101227.28;5030349;28;99030;-69
2024/04/06 08:41:57;;;;;;;4.03;1.00;;;;;;;23.29;55.66;101233.75;5030556;27;98055;-68
2024/04/06 08:44:34;;;;;;;3.33;1.27;;;;;;;23.30;55.95;101235.44;5039352;27;97374;-69
2024/04/06 08:47:02;;;;;;;6.43;1.58;;;;;;;23.68;54.35;101228.81;5034202;27;96841;-68
2024/04/06 08:49:30;;;;;;;4.25;1.02;;;;;;;23.66;54.37;101233.47;5028697;27;97776;-68
2024/04/06 08:52:01;;;;;;;2.65;1.27;;;;;;;22.55;58.06;101227.06;5037040;27;99297;-69
2024/04/06 08:54:28;;;;;;;4.40;1.30;;;;;;;21.82;60.73;101213.81;5029956;27;97002;-69
2024/04/06 08:56:56;;;;;;;2.88;1.13;;;;;;;21.86;60.93;101217.97;5036146;27;96899;-69
2024/04/06 08:59:22;;;;;;;2.17;0.80;;;;;;;22.07;60.53;101214.69;5033225;27;99272;-69
2024/04/06 09:01:48;;;;;;;3.03;1.00;;;;;;;22.46;59.24;101217.00;5033989;27;99066;-68
2024/04/06 09:04:14;;;;;;;4.50;1.17;;;;;;;22.33;59.41;101226.13;5033019;27;99646;-70
2024/04/06 09:06:44;;;;;;;3.53;1.23;;;;;;;23.03;57.66;101232.28;5030017;27;97853;-69
2024/04/06 09:09:10;;;;;;;2.50;1.02;;;;;;;23.16;56.76;101237.56;5029833;27;99781;-69
2024/04/06 09:11:38;;;;;;;1.80;0.90;;;;;;;23.70;55.09;101233.06;5033601;27;99509;-68
2024/04/06 09:14:04;;;;;;;6.13;1.13;;;;;;;23.57;55.59;101234.22;5026733;27;97983;-69
2024/04/06 09:16:32;;;;;;;3.50;1.40;;;;;;;22.88;57.14;101228.13;5033402;27;96774;-68
2024/04/06 09:18:57;;;;;;;2.50;1.20;;;;;;;23.36;55.95;101223.31;5029512;28;98086;-70
2024/04/06 09:21:23;;;;;;;7.65;4.05;;;;;;;23.96;54.11;101221.97;5028454;27;99140;-69
2024/04/06 09:23:51;;;;;;;4.90;1.58;;;;;;;24.58;51.72;101219.31;5030852;27;97152;-69
2024/04/06 09:26:21;;;;;;;6.50;1.98;;;;;;;23.68;53.56;101224.28;5031921;27;97073;-69
2024/04/06 09:28:48;;;;;;;5.45;2.03;;;;;;;23.60;54.73;101224.03;5029022;28;99031;-68
2024/04/06 09:31:19;;;;;;;4.07;1.20;;;;;;;23.66;53.98;101218.13;5031428;27;98854;-69
2024/04/06 09:33:50;;;;;;;4.30;1.20;;;;;;;24.16;53.39;101205.78;5028860;27;97474;-70
2024/04/06 09:36:16;;;;;;;4.32;1.40;;;;;;;23.94;52.93;101216.69;5032261;27;98428;-69
2024/04/06 09:38:43;;;;;;;6.18;1.38;;;;;;;23.39;54.63;101223.91;5026459;27;99335;-70
2024/04/06 09:41:14;;;;;;;4.82;1.38;;;;;;;23.95;53.24;101198.66;5035089;27;99427;-69
2024/04/06 09:43:39;;;;;;;4.72;1.13;;;;;;;23.58;54.58;101212.50;5033132;27;97487;-69
2024/04/06 09:46:07;;;;;;;3.53;1.10;;;;;;;23.14;54.83;101199.06;5030453;27;97771;-69
2024/04/06 09:48:32;;;;;;;3.15;1.15;;;;;;;23.02;55.67;101209.00;5022221;27;98633;-69
2024/04/06 09:51:00;;;;;;;2.50;0.70;;;;;;;22.69;56.20;101211.66;5031249;27;98738;-69
2024/04/06 09:53:26;;;;;;;3.50;1.10;;;;;;;23.34;54.31;101215.34;5033370;27;97067;-70
2024/04/06 09:55:54;;;;;;;5.93;1.10;;;;;;;23.42;53.98;101212.91;5030130;27;97020;-70
2024/04/06 09:58:28;;;;;;;3.70;1.08;;;;;;;23.81;53.68;101219.56;5030821;27;99138;-70
2024/04/06 10:00:54;;;;;;;3.88;1.10;;;;;;;23.83;52.47;101222.13;5030325;27;99314;-69
2024/04/06 10:03:21;;;;;;;1.50;0.80;;;;;;;23.60;52.76;101213.25;5029329;27;96822;-69
2024/04/06 10:05:49;;;;;;;2.50;0.90;;;;;;;23.52;53.08;101223.81;5029530;27;97529;-68
2024/04/06 10:08:15;;;;;;;2.40;0.85;;;;;;;23.71;52.56;101223.13;5027757;27;99045;-68
2024/04/06 10:10:45;;;;;;;2.65;0.88;;;;;;;23.53;52.37;101213.88;5028156;27;98014;-69
2024/04/06 10:13:18;;;;;;;2.05;0.90;;;;;;;22.96;54.14;101209.50;5035058;27;97155;-68
2024/04/06 10:15:46;;;;;;;3.13;1.00;;;;;;;23.45;53.94;101214.47;5033173;27;98532;-68
2024/04/06 10:18:13;;;;;;;2.83;0.75;;;;;;;23.76;53.03;101223.63;5032583;27;98972;-69
2024/04/06 10:20:41;;;;;;;1.88;0.70;;;;;;;24.11;51.26;101213.41;5031017;27;99012;-68
2024/04/06 10:23:06;;;;;;;2.83;1.15;;;;;;;23.48;51.67;101221.50;5031800;27;97199;-69
2024/04/06 10:25:36;;;;;;;2.90;0.82;;;;;;;23.70;51.41;101213.31;5030231;27;97088;-69
2024/04/06 10:28:03;;;;;;;4.72;0.90;;;;;;;23.35;52.17;101209.00;5030653;27;98966;-69
2024/04/06 10:30:30;;;;;;;3.13;0.98;;;;;;;23.99;50.49;101198.25;5031317;27;98861;-69
2024/04/06 10:32:57;;;;;;;4.68;0.85;;;;;;;23.40;51.59;101203.22;5030659;27;96750;-69
2024/04/06 10:35:24;;;;;;;4.75;0.77;;;;;;;24.05;50.65;101205.84;5028894;28;96984;-68
2024/04/06 10:37:50;;;;;;;1.88;0.70;;;;;;;24.54;49.35;101216.03;5029575;27;99316;-69
2024/04/06 10:40:17;;;;;;;2.75;0.70;;;;;;;24.30;49.32;101203.78;5029774;27;98754;-69
2024/04/06 10:42:42;;;;;;;2.13;0.60;;;;;;;24.26;49.23;101210.44;5026892;27;99296;-68
2024/04/06 10:45:11;;;;;;;4.30;0.80;;;;;;;24.38;48.27;101194.03;5029860;28;96914;-69
2024/04/06 10:47:37;;;;;;;2.80;0.75;;;;;;;24.20;47.89;101191.09;5029492;27;99276;-69
2024/04/06 10:50:07;;;;;;;1.83;0.57;;;;;;;24.66;47.72;101189.81;5033421;28;98810;-69
2024/04/06 10:52:33;;;;;;;2.70;1.05;;;;;;;24.27;49.71;101190.56;5033405;27;96790;-68
2024/04/06 10:55:09;;;;;;;4.00;1.10;;;;;;;24.34;49.39;101189.03;5033712;28;97258;-71
2024/04/06 10:57:36;;;;;;;3.55;1.15;;;;;;;24.02;50.09;101184.53;5032058;27;101254;-68
2024/04/06 11:00:08;;;;;;;5.80;1.10;;;;;;;24.61;48.84;101170.44;5032131;27;99211;-68
2024/04/06 11:02:33;;;;;;;2.08;1.20;;;;;;;24.68;48.40;101177.00;5033719;27;97151;-68
2024/04/06 11:05:01;;;;;;;1.48;0.85;;;;;;;25.33;45.77;101175.72;5033394;27;97740;-69
2024/04/06 11:07:27;;;;;;;3.67;1.08;;;;;;;24.98;46.56;101178.88;5032449;28;97960;-69
2024/04/06 11:09:54;;;;;;;2.05;0.70;;;;;;;25.50;45.71;101168.75;5031628;27;101329;-70
2024/04/06 11:12:19;;;;;;;1.23;0.70;;;;;;;25.83;44.70;101172.94;5030954;27;98290;-69
2024/04/06 11:14:49;;;;;;;1.35;0.70;;;;;;;25.34;44.96;101180.97;5025972;27;96981;-69
2024/04/06 11:17:16;;;;;;;3.60;0.90;;;;;;;25.52;45.21;101189.28;5032652;27;99307;-69
2024/04/06 11:19:43;;;;;;;2.15;0.70;;;;;;;25.88;44.67;101167.97;5032618;27;99013;-69
2024/04/06 11:22:08;;;;;;;1.65;0.80;;;;;;;26.03;44.13;101175.50;5036749;27;96895;-70
2024/04/06 11:24:36;;;;;;;1.60;0.80;;;;;;;26.34;44.18;101178.06;5030049;27;97193;-69
2024/04/06 11:27:05;;;;;;;3.83;0.88;;;;;;;26.14;43.60;101186.19;5032350;27;100964;-69
2024/04/06 11:29:32;;;;;;;3.28;0.98;;;;;;;26.30;43.36;101174.81;5032162;27;98673;-69
2024/04/06 11:31:57;;;;;;;4.38;0.80;;;;;;;26.59;43.34;101181.00;5036962;27;97046;-69
2024/04/06 11:34:24;;;;;;;1.83;0.60;;;;;;;26.55;42.93;101173.31;5032803;27;97179;-69
2024/04/06 11:36:49;;;;;;;1.70;0.63;;;;;;;26.54;43.29;101177.88;5032238;27;99366;-69